Time;durP1;ratioP1;P1;durP2;ratioP2;P2;SDS_P1;SDS_P2;PMS_P1;PMS_P2;Temp;Humidity;BMP_temperature;BMP_pressure;BME280_temperature;BME280_humidity;BME280_pressure;Samples;Min_cycle;Max_cycle;Signal;HPM_P1;HPM_P2
2024/01/15 00:00:26;;;;;;;24.30;9.32;;;;;;;;;;4998329;28;20560;-53
2024/01/15 00:02:52;;;;;;;25.50;9.80;;;;;;;;;;4997487;28;20065;-54
2024/01/15 00:05:18;;;;;;;24.13;9.35;;;;;;;;;;5002042;28;20041;-53
2024/01/15 00:07:44;;;;;;;27.35;9.45;;;;;;;;;;4999505;28;20058;-54
2024/01/15 00:10:10;;;;;;;27.90;10.15;;;;;;;;;;5000490;28;20391;-53
2024/01/15 00:12:37;;;;;;;26.10;8.48;;;;;;;;;;5001586;28;20030;-53
2024/01/15 00:15:04;;;;;;;21.42;8.35;;;;;;;;;;5001232;28;20505;-52
2024/01/15 00:17:31;;;;;;;22.75;8.68;;;;;;;;;;4998822;28;20042;-54
2024/01/15 00:19:57;;;;;;;25.33;9.10;;;;;;;;;;4993288;28;20038;-54
2024/01/15 00:22:26;;;;;;;24.00;10.27;;;;;;;;;;5004953;28;20050;-53
2024/01/15 00:24:52;;;;;;;24.65;8.48;;;;;;;;;;4999051;28;20056;-52
2024/01/15 00:27:18;;;;;;;26.10;10.00;;;;;;;;;;5004902;28;20039;-57
2024/01/15 00:29:45;;;;;;;22.98;8.90;;;;;;;;;;4999536;28;20045;-53
2024/01/15 00:32:11;;;;;;;21.92;8.93;;;;;;;;;;5000581;28;20046;-53
2024/01/15 00:34:37;;;;;;;23.05;8.57;;;;;;;;;;5004804;28;20413;-55
2024/01/15 00:37:03;;;;;;;24.17;8.65;;;;;;;;;;5001927;28;20402;-54
2024/01/15 00:39:29;;;;;;;25.38;9.20;;;;;;;;;;5001487;28;20030;-51
2024/01/15 00:41:55;;;;;;;25.17;9.45;;;;;;;;;;5001429;28;20029;-52
2024/01/15 00:44:21;;;;;;;27.52;9.63;;;;;;;;;;5007315;28;20033;-51
2024/01/15 00:46:47;;;;;;;27.00;9.07;;;;;;;;;;4997943;28;20041;-55
2024/01/15 00:49:14;;;;;;;22.35;8.98;;;;;;;;;;4998670;28;20057;-52
2024/01/15 00:51:40;;;;;;;24.23;9.30;;;;;;;;;;5000262;28;20034;-50
2024/01/15 00:54:06;;;;;;;29.40;10.07;;;;;;;;;;4998349;28;20398;-54
2024/01/15 00:56:32;;;;;;;22.55;8.73;;;;;;;;;;5001831;28;20060;-53
2024/01/15 00:59:00;;;;;;;25.40;8.55;;;;;;;;;;5002753;28;20033;-52
2024/01/15 01:01:26;;;;;;;24.77;8.82;;;;;;;;;;5005127;28;20034;-53
2024/01/15 01:03:52;;;;;;;28.80;8.80;;;;;;;;;;5002367;28;20714;-50
2024/01/15 01:06:18;;;;;;;17.63;7.25;;;;;;;;;;4996816;28;20045;-51
2024/01/15 01:08:44;;;;;;;27.60;8.38;;;;;;;;;;4998765;28;20049;-51
2024/01/15 01:11:14;;;;;;;18.35;7.70;;;;;;;;;;4998036;28;20486;-51
2024/01/15 01:13:40;;;;;;;22.58;7.78;;;;;;;;;;4997497;28;20383;-53
2024/01/15 01:16:07;;;;;;;19.27;7.22;;;;;;;;;;4997640;28;20049;-50
2024/01/15 01:18:33;;;;;;;17.40;7.07;;;;;;;;;;4995510;28;20045;-53
2024/01/15 01:20:59;;;;;;;21.73;8.13;;;;;;;;;;4999679;28;20143;-54
2024/01/15 01:23:25;;;;;;;19.77;7.40;;;;;;;;;;4998517;28;20039;-53
2024/01/15 01:25:51;;;;;;;24.48;8.50;;;;;;;;;;5000872;28;20414;-53
2024/01/15 01:28:17;;;;;;;23.38;8.13;;;;;;;;;;4998891;28;20436;-53
2024/01/15 01:30:43;;;;;;;25.13;8.23;;;;;;;;;;5002619;28;20053;-51
2024/01/15 01:33:09;;;;;;;24.42;7.55;;;;;;;;;;5017542;28;20041;-51
2024/01/15 01:35:36;;;;;;;18.65;7.32;;;;;;;;;;5001654;28;20397;-52
2024/01/15 01:38:02;;;;;;;24.80;8.38;;;;;;;;;;5003036;28;20030;-54
2024/01/15 01:40:39;;;;;;;24.75;7.93;;;;;;;;;;5002568;28;20045;-54
2024/01/15 01:43:05;;;;;;;18.60;7.82;;;;;;;;;;5000021;28;20486;-54
2024/01/15 01:45:31;;;;;;;23.00;8.10;;;;;;;;;;4997686;28;20041;-54
2024/01/15 01:47:58;;;;;;;21.00;7.40;;;;;;;;;;4993937;28;20045;-54
2024/01/15 01:50:24;;;;;;;23.38;8.60;;;;;;;;;;4997199;28;20042;-55
2024/01/15 01:52:50;;;;;;;24.98;7.95;;;;;;;;;;4996348;28;20054;-51
2024/01/15 01:55:16;;;;;;;21.45;6.97;;;;;;;;;;4994336;28;20049;-52
2024/01/15 01:57:43;;;;;;;24.27;8.68;;;;;;;;;;4998729;28;20033;-52
2024/01/15 02:00:10;;;;;;;20.98;7.95;;;;;;;;;;4993241;28;20040;-51
2024/01/15 02:02:39;;;;;;;20.77;7.95;;;;;;;;;;4998948;28;20390;-55
2024/01/15 02:05:06;;;;;;;20.02;6.63;;;;;;;;;;5001584;28;20402;-53
2024/01/15 02:07:34;;;;;;;22.95;8.43;;;;;;;;;;4997750;28;20046;-53
2024/01/15 02:10:00;;;;;;;18.35;6.80;;;;;;;;;;4995259;28;20504;-50
2024/01/15 02:12:27;;;;;;;20.63;7.22;;;;;;;;;;5005108;28;20036;-52
2024/01/15 02:14:53;;;;;;;21.73;7.38;;;;;;;;;;5000080;28;20047;-51
2024/01/15 02:17:19;;;;;;;17.63;6.57;;;;;;;;;;4995361;28;20034;-50
2024/01/15 02:19:45;;;;;;;19.05;6.43;;;;;;;;;;4996489;28;20049;-52
2024/01/15 02:22:11;;;;;;;23.90;8.23;;;;;;;;;;5006437;28;20046;-52
2024/01/15 02:24:37;;;;;;;21.60;7.55;;;;;;;;;;5003270;28;20038;-56
2024/01/15 02:27:03;;;;;;;20.85;7.38;;;;;;;;;;4997972;28;20050;-54
2024/01/15 02:29:29;;;;;;;22.05;7.10;;;;;;;;;;4998504;28;20060;-52
2024/01/15 02:31:55;;;;;;;19.65;6.22;;;;;;;;;;4997953;28;20053;-53
2024/01/15 02:34:21;;;;;;;20.38;7.68;;;;;;;;;;5002879;28;20026;-55
2024/01/15 02:36:48;;;;;;;20.30;7.05;;;;;;;;;;5002261;28;20049;-53
2024/01/15 02:39:14;;;;;;;19.30;7.45;;;;;;;;;;4992728;28;20026;-51
2024/01/15 02:41:40;;;;;;;22.40;8.15;;;;;;;;;;5003267;28;20046;-53
2024/01/15 02:44:06;;;;;;;18.70;6.95;;;;;;;;;;5008301;28;20045;-55
2024/01/15 02:46:32;;;;;;;26.70;8.38;;;;;;;;;;5004003;28;20078;-54
2024/01/15 02:48:58;;;;;;;22.15;6.57;;;;;;;;;;5000747;28;20041;-56
2024/01/15 02:51:24;;;;;;;19.75;7.20;;;;;;;;;;5001175;28;20356;-55
2024/01/15 02:53:50;;;;;;;22.45;8.00;;;;;;;;;;5005409;28;20401;-57
2024/01/15 02:56:16;;;;;;;19.48;8.02;;;;;;;;;;5003169;28;20050;-56
2024/01/15 02:58:42;;;;;;;21.15;7.28;;;;;;;;;;5002257;28;20062;-54
2024/01/15 03:01:08;;;;;;;20.90;7.07;;;;;;;;;;5000908;28;20053;-55
2024/01/15 03:03:34;;;;;;;22.23;8.35;;;;;;;;;;5006337;28;20046;-55
2024/01/15 03:06:02;;;;;;;24.42;7.53;;;;;;;;;;4999899;28;20049;-56
2024/01/15 03:08:29;;;;;;;19.60;7.00;;;;;;;;;;5002426;28;20046;-52
2024/01/15 03:10:55;;;;;;;19.40;6.85;;;;;;;;;;4999639;28;20033;-54
2024/01/15 03:13:21;;;;;;;20.20;6.53;;;;;;;;;;5000691;28;20406;-55
2024/01/15 03:15:47;;;;;;;20.83;6.90;;;;;;;;;;5004042;28;20413;-54
2024/01/15 03:18:13;;;;;;;21.92;7.00;;;;;;;;;;5009254;28;20050;-54
2024/01/15 03:20:39;;;;;;;21.33;7.28;;;;;;;;;;5005745;28;20042;-53
2024/01/15 03:23:05;;;;;;;22.27;7.72;;;;;;;;;;5007344;28;20033;-53
2024/01/15 03:25:31;;;;;;;22.02;7.35;;;;;;;;;;4998731;28;20050;-56
2024/01/15 03:27:57;;;;;;;19.05;6.65;;;;;;;;;;5003906;28;20034;-54
2024/01/15 03:30:23;;;;;;;20.27;7.88;;;;;;;;;;5001584;28;20533;-55
2024/01/15 03:32:50;;;;;;;20.92;7.05;;;;;;;;;;5003459;28;20033;-54
2024/01/15 03:35:16;;;;;;;20.75;6.72;;;;;;;;;;5003913;28;20041;-55
2024/01/15 03:37:42;;;;;;;19.95;7.38;;;;;;;;;;5003421;28;20053;-54
2024/01/15 03:40:09;;;;;;;25.23;7.32;;;;;;;;;;5000197;28;20041;-53
2024/01/15 03:42:35;;;;;;;17.65;6.93;;;;;;;;;;5005048;28;20383;-56
2024/01/15 03:45:01;;;;;;;22.13;7.25;;;;;;;;;;5000613;28;20407;-55
2024/01/15 03:47:27;;;;;;;16.80;7.05;;;;;;;;;;4999980;28;20042;-54
2024/01/15 03:49:53;;;;;;;18.33;6.47;;;;;;;;;;5001498;28;20033;-54
2024/01/15 03:52:19;;;;;;;17.48;6.28;;;;;;;;;;5005694;28;20038;-56
2024/01/15 03:54:45;;;;;;;18.98;7.20;;;;;;;;;;4997631;28;20049;-54
2024/01/15 03:57:11;;;;;;;19.05;6.63;;;;;;;;;;5005956;28;20034;-54
2024/01/15 03:59:37;;;;;;;18.25;6.70;;;;;;;;;;5001118;28;20045;-55
2024/01/15 04:02:04;;;;;;;19.02;6.78;;;;;;;;;;5000877;28;20429;-54
2024/01/15 04:04:30;;;;;;;21.20;7.22;;;;;;;;;;5008552;28;20052;-54
2024/01/15 04:06:56;;;;;;;19.65;6.47;;;;;;;;;;5002237;28;20375;-53
2024/01/15 04:09:22;;;;;;;18.90;7.50;;;;;;;;;;4995473;28;20046;-53
2024/01/15 04:11:48;;;;;;;21.27;6.93;;;;;;;;;;5003336;28;20034;-52
2024/01/15 04:14:14;;;;;;;27.38;8.30;;;;;;;;;;5001545;28;20042;-52
2024/01/15 04:16:41;;;;;;;23.13;7.22;;;;;;;;;;4999880;28;20057;-54
2024/01/15 04:19:07;;;;;;;21.67;7.35;;;;;;;;;;4994804;28;20044;-55
2024/01/15 04:21:33;;;;;;;20.38;6.85;;;;;;;;;;4999062;28;20046;-55
2024/01/15 04:23:59;;;;;;;22.52;7.35;;;;;;;;;;5004833;28;20421;-53
2024/01/15 04:26:25;;;;;;;21.73;7.55;;;;;;;;;;5007542;28;20057;-52
2024/01/15 04:28:51;;;;;;;22.85;8.02;;;;;;;;;;5000882;28;20061;-54
2024/01/15 04:31:22;;;;;;;21.35;7.35;;;;;;;;;;5004906;28;20406;-55
2024/01/15 04:33:48;;;;;;;26.60;8.85;;;;;;;;;;5000987;28;20436;-52
2024/01/15 04:36:14;;;;;;;24.80;8.73;;;;;;;;;;5008676;28;20057;-53
2024/01/15 04:38:40;;;;;;;21.88;7.95;;;;;;;;;;5004461;28;20045;-55
2024/01/15 04:41:11;;;;;;;20.45;6.88;;;;;;;;;;5000514;28;20042;-51
2024/01/15 04:43:37;;;;;;;27.02;8.48;;;;;;;;;;4998602;28;20034;-55
2024/01/15 04:46:05;;;;;;;24.73;7.93;;;;;;;;;;4999222;28;20429;-51
2024/01/15 04:48:31;;;;;;;23.10;8.27;;;;;;;;;;4996245;28;20407;-51
2024/01/15 04:50:57;;;;;;;24.35;7.97;;;;;;;;;;4999521;28;20033;-56
2024/01/15 04:53:23;;;;;;;25.33;8.77;;;;;;;;;;5002278;28;20041;-53
2024/01/15 04:55:49;;;;;;;23.20;8.82;;;;;;;;;;5003617;28;20053;-52
2024/01/15 04:58:16;;;;;;;24.73;7.95;;;;;;;;;;4998139;28;20046;-55
2024/01/15 05:00:42;;;;;;;23.75;8.10;;;;;;;;;;5001067;28;20062;-53
2024/01/15 05:03:08;;;;;;;23.35;8.50;;;;;;;;;;5001393;28;20505;-54
2024/01/15 05:05:34;;;;;;;23.35;7.95;;;;;;;;;;4996008;28;20054;-55
2024/01/15 05:08:00;;;;;;;26.38;9.00;;;;;;;;;;4997457;28;20042;-54
2024/01/15 05:10:26;;;;;;;25.10;8.82;;;;;;;;;;4998879;28;20066;-53
2024/01/15 05:12:52;;;;;;;20.85;7.65;;;;;;;;;;5002079;28;20061;-52
2024/01/15 05:15:18;;;;;;;25.13;8.90;;;;;;;;;;4993686;28;20046;-54
2024/01/15 05:17:44;;;;;;;25.65;8.85;;;;;;;;;;5001365;28;20034;-50
2024/01/15 05:20:10;;;;;;;23.35;8.57;;;;;;;;;;5001477;28;20042;-52
2024/01/15 05:22:37;;;;;;;23.77;7.95;;;;;;;;;;5003678;28;20061;-54
2024/01/15 05:25:03;;;;;;;25.33;10.35;;;;;;;;;;5003327;28;20042;-54
2024/01/15 05:27:29;;;;;;;22.98;8.63;;;;;;;;;;4994740;28;20042;-52
2024/01/15 05:29:55;;;;;;;23.33;7.47;;;;;;;;;;5000915;28;20030;-51
2024/01/15 05:32:21;;;;;;;23.05;7.22;;;;;;;;;;5005883;28;20046;-54
2024/01/15 05:34:47;;;;;;;22.85;7.50;;;;;;;;;;5001167;28;20032;-54
2024/01/15 05:37:13;;;;;;;20.23;7.40;;;;;;;;;;4998011;28;20229;-53
2024/01/15 05:39:39;;;;;;;24.40;7.75;;;;;;;;;;5000400;28;20404;-54
2024/01/15 05:42:05;;;;;;;19.70;7.47;;;;;;;;;;4999004;28;20041;-53
2024/01/15 05:44:31;;;;;;;18.73;7.18;;;;;;;;;;4997389;28;20071;-55
2024/01/15 05:46:58;;;;;;;19.65;7.03;;;;;;;;;;5003360;28;20421;-55
2024/01/15 05:49:24;;;;;;;15.30;6.45;;;;;;;;;;5002270;28;20422;-55
2024/01/15 05:51:51;;;;;;;18.65;6.60;;;;;;;;;;4998748;28;20042;-54
2024/01/15 05:54:18;;;;;;;16.50;6.18;;;;;;;;;;5000128;28;20042;-53
2024/01/15 05:56:44;;;;;;;17.00;6.32;;;;;;;;;;5001231;28;20034;-55
2024/01/15 05:59:10;;;;;;;17.92;6.43;;;;;;;;;;4994298;28;20054;-53
2024/01/15 06:01:36;;;;;;;15.25;6.57;;;;;;;;;;5000259;28;20049;-55
2024/01/15 06:04:03;;;;;;;17.92;6.38;;;;;;;;;;4996492;28;20041;-54
2024/01/15 06:06:29;;;;;;;16.52;6.70;;;;;;;;;;4993028;28;20055;-55
2024/01/15 06:08:55;;;;;;;13.85;6.30;;;;;;;;;;4995859;28;20057;-57
2024/01/15 06:11:21;;;;;;;15.45;6.18;;;;;;;;;;5000964;28;20046;-58
2024/01/15 06:13:47;;;;;;;15.95;6.35;;;;;;;;;;4996888;28;20038;-57
2024/01/15 06:16:16;;;;;;;16.73;7.10;;;;;;;;;;5013385;28;20042;-58
2024/01/15 06:18:42;;;;;;;20.10;7.63;;;;;;;;;;4993821;28;20038;-57
2024/01/15 06:21:10;;;;;;;18.52;7.50;;;;;;;;;;5006745;28;20808;-57
2024/01/15 06:23:37;;;;;;;22.45;7.43;;;;;;;;;;5006879;28;20052;-57
2024/01/15 06:26:03;;;;;;;21.85;8.23;;;;;;;;;;5005539;28;20029;-57
2024/01/15 06:28:29;;;;;;;22.70;8.15;;;;;;;;;;4999509;28;20041;-57
2024/01/15 06:30:56;;;;;;;22.15;8.60;;;;;;;;;;5002194;28;20049;-57
2024/01/15 06:33:22;;;;;;;21.13;8.38;;;;;;;;;;5001759;28;20045;-58
2024/01/15 06:35:49;;;;;;;24.33;8.43;;;;;;;;;;5007824;28;20394;-57
2024/01/15 06:38:15;;;;;;;19.65;7.65;;;;;;;;;;5007347;28;20049;-58
2024/01/15 06:40:45;;;;;;;21.35;8.73;;;;;;;;;;5002857;28;20422;-57
2024/01/15 06:43:12;;;;;;;19.65;7.88;;;;;;;;;;5002235;28;20038;-56
2024/01/15 06:45:38;;;;;;;22.30;7.97;;;;;;;;;;4999404;28;20058;-57
2024/01/15 06:48:05;;;;;;;19.77;7.97;;;;;;;;;;4996040;28;20065;-57
2024/01/15 06:50:31;;;;;;;22.17;8.48;;;;;;;;;;4999864;28;20034;-58
2024/01/15 06:52:57;;;;;;;22.05;8.68;;;;;;;;;;5001793;28;20406;-57
2024/01/15 06:55:23;;;;;;;20.67;8.43;;;;;;;;;;5000550;28;20386;-57
2024/01/15 06:57:49;;;;;;;25.80;9.60;;;;;;;;;;4998090;28;20514;-58
2024/01/15 07:00:16;;;;;;;21.60;8.20;;;;;;;;;;5001364;28;20045;-58
2024/01/15 07:02:42;;;;;;;22.70;7.78;;;;;;;;;;4998659;28;20394;-58
2024/01/15 07:05:08;;;;;;;20.90;9.20;;;;;;;;;;5000018;28;20050;-58
2024/01/15 07:07:34;;;;;;;19.67;7.50;;;;;;;;;;5002514;28;20072;-57
2024/01/15 07:10:00;;;;;;;19.88;7.68;;;;;;;;;;5001343;28;20050;-57
2024/01/15 07:12:26;;;;;;;17.25;7.20;;;;;;;;;;5005613;28;20513;-57
2024/01/15 07:14:53;;;;;;;19.15;7.65;;;;;;;;;;5007608;28;20045;-57
2024/01/15 07:17:19;;;;;;;19.05;7.80;;;;;;;;;;5006836;28;20038;-58
2024/01/15 07:19:45;;;;;;;19.98;7.50;;;;;;;;;;5009070;28;20048;-57
2024/01/15 07:22:11;;;;;;;19.65;8.43;;;;;;;;;;5006121;28;20160;-55
2024/01/15 07:24:37;;;;;;;14.52;6.43;;;;;;;;;;5002213;28;20057;-57
2024/01/15 07:27:04;;;;;;;13.80;5.75;;;;;;;;;;5002699;28;20049;-57
2024/01/15 07:29:32;;;;;;;16.20;6.60;;;;;;;;;;5003436;28;20057;-57
2024/01/15 07:31:59;;;;;;;17.48;6.55;;;;;;;;;;5000441;28;20484;-58
2024/01/15 07:34:25;;;;;;;20.67;6.90;;;;;;;;;;5006475;28;20056;-56
2024/01/15 07:36:51;;;;;;;15.68;6.20;;;;;;;;;;5001777;28;20042;-58
2024/01/15 07:39:17;;;;;;;15.82;5.72;;;;;;;;;;4995036;28;20026;-57
2024/01/15 07:41:43;;;;;;;13.40;5.07;;;;;;;;;;4998822;28;20046;-57
2024/01/15 07:44:10;;;;;;;16.75;6.57;;;;;;;;;;4996211;28;20030;-57
2024/01/15 07:46:36;;;;;;;15.02;6.43;;;;;;;;;;4997530;28;20498;-58
2024/01/15 07:49:03;;;;;;;12.05;4.88;;;;;;;;;;5006392;28;20131;-57
2024/01/15 07:51:29;;;;;;;10.77;4.47;;;;;;;;;;5000904;28;20030;-55
2024/01/15 07:53:56;;;;;;;13.68;5.82;;;;;;;;;;5004067;28;20030;-58
2024/01/15 07:56:22;;;;;;;13.70;5.90;;;;;;;;;;4999066;28;20031;-58
2024/01/15 07:58:48;;;;;;;9.75;4.30;;;;;;;;;;4998617;28;20062;-56
2024/01/15 08:01:14;;;;;;;12.88;5.00;;;;;;;;;;5002643;28;20069;-57
2024/01/15 08:03:40;;;;;;;12.15;5.72;;;;;;;;;;5005045;28;20057;-57
2024/01/15 08:06:09;;;;;;;10.63;4.57;;;;;;;;;;4994246;28;20038;-57
2024/01/15 08:08:36;;;;;;;12.27;5.40;;;;;;;;;;4996545;28;20051;-57
2024/01/15 08:11:03;;;;;;;11.50;5.22;;;;;;;;;;4996596;28;20069;-56
2024/01/15 08:13:29;;;;;;;10.00;4.72;;;;;;;;;;4998553;28;20026;-57
2024/01/15 08:15:55;;;;;;;12.02;4.82;;;;;;;;;;5004025;28;20053;-56
2024/01/15 08:18:21;;;;;;;9.35;4.13;;;;;;;;;;5007340;28;20030;-57
2024/01/15 08:20:47;;;;;;;7.95;3.55;;;;;;;;;;5004321;28;20426;-57
2024/01/15 08:23:13;;;;;;;9.25;4.32;;;;;;;;;;5003090;28;20402;-56
2024/01/15 08:25:40;;;;;;;11.35;4.57;;;;;;;;;;5001201;28;20046;-57
2024/01/15 08:28:06;;;;;;;12.30;4.80;;;;;;;;;;5001348;28;20046;-57
2024/01/15 08:30:32;;;;;;;7.68;4.00;;;;;;;;;;5001687;28;20046;-57
2024/01/15 08:32:59;;;;;;;6.20;3.25;;;;;;;;;;5003284;28;20506;-55
2024/01/15 08:35:25;;;;;;;9.30;3.75;;;;;;;;;;5004782;28;20505;-56
2024/01/15 08:37:54;;;;;;;7.85;3.33;;;;;;;;;;4994661;28;20057;-58
2024/01/15 08:40:20;;;;;;;8.82;3.92;;;;;;;;;;4994216;28;20054;-57
2024/01/15 08:42:46;;;;;;;12.48;5.70;;;;;;;;;;4996263;28;20495;-58
2024/01/15 08:45:12;;;;;;;8.07;3.70;;;;;;;;;;4996109;28;20030;-57
2024/01/15 08:47:38;;;;;;;9.30;4.05;;;;;;;;;;4997188;28;20038;-58
2024/01/15 08:50:05;;;;;;;7.22;3.55;;;;;;;;;;4997118;28;20510;-57
2024/01/15 08:52:31;;;;;;;10.00;5.00;;;;;;;;;;4996866;28;20502;-56
2024/01/15 08:54:58;;;;;;;7.78;4.20;;;;;;;;;;5000329;28;20034;-56
2024/01/15 08:57:24;;;;;;;8.95;3.58;;;;;;;;;;4996876;28;20050;-57
2024/01/15 08:59:51;;;;;;;9.02;3.78;;;;;;;;;;5005281;28;20054;-56
2024/01/15 09:02:17;;;;;;;7.22;3.42;;;;;;;;;;5000067;28;20030;-57
2024/01/15 09:04:43;;;;;;;12.75;4.55;;;;;;;;;;4996545;28;20045;-57
2024/01/15 09:07:10;;;;;;;7.45;3.35;;;;;;;;;;4998106;28;20033;-57
2024/01/15 09:09:36;;;;;;;14.63;4.60;;;;;;;;;;4999487;28;21050;-56
2024/01/15 09:12:02;;;;;;;9.95;3.38;;;;;;;;;;4999232;28;20052;-56
2024/01/15 09:14:29;;;;;;;8.13;3.47;;;;;;;;;;5003195;28;20058;-57
2024/01/15 09:16:56;;;;;;;6.65;3.50;;;;;;;;;;5006843;28;20052;-57
2024/01/15 09:19:22;;;;;;;10.90;4.25;;;;;;;;;;5005228;28;20042;-57
2024/01/15 09:21:48;;;;;;;9.15;4.75;;;;;;;;;;5007233;28;20053;-58
2024/01/15 09:24:14;;;;;;;8.02;4.20;;;;;;;;;;4999235;28;20045;-56
2024/01/15 09:26:40;;;;;;;5.63;3.58;;;;;;;;;;5001621;28;20053;-57
2024/01/15 09:29:06;;;;;;;6.05;3.50;;;;;;;;;;4997668;28;20053;-57
2024/01/15 09:31:32;;;;;;;7.40;3.88;;;;;;;;;;4999522;28;20379;-56
2024/01/15 09:34:00;;;;;;;9.20;3.80;;;;;;;;;;5002490;28;20038;-57
2024/01/15 09:36:26;;;;;;;8.63;3.88;;;;;;;;;;4995231;28;20430;-57
2024/01/15 09:38:52;;;;;;;8.00;3.80;;;;;;;;;;4996892;28;20034;-56
2024/01/15 09:41:19;;;;;;;7.55;3.33;;;;;;;;;;4998699;28;20332;-59
2024/01/15 09:43:45;;;;;;;6.82;3.50;;;;;;;;;;4997259;28;20050;-56
2024/01/15 09:46:12;;;;;;;4.70;2.47;;;;;;;;;;4996823;28;20038;-56
2024/01/15 09:48:38;;;;;;;3.88;2.55;;;;;;;;;;5002985;28;20046;-57
2024/01/15 09:51:06;;;;;;;5.45;2.55;;;;;;;;;;4994684;28;20045;-57
2024/01/15 09:53:33;;;;;;;7.75;2.58;;;;;;;;;;4998692;28;20038;-57
2024/01/15 09:56:00;;;;;;;5.75;2.63;;;;;;;;;;4997948;28;20056;-57
2024/01/15 09:58:27;;;;;;;6.68;2.90;;;;;;;;;;4998175;28;20046;-57
2024/01/15 10:00:54;;;;;;;4.80;2.90;;;;;;;;;;5001604;28;20045;-57
2024/01/15 10:03:21;;;;;;;5.88;2.33;;;;;;;;;;5006716;28;20050;-58
2024/01/15 10:05:48;;;;;;;5.35;2.42;;;;;;;;;;4997507;28;20679;-57
2024/01/15 10:08:15;;;;;;;5.00;2.75;;;;;;;;;;4998825;28;20576;-57
2024/01/15 10:10:41;;;;;;;7.18;2.67;;;;;;;;;;5004628;28;20046;-58
2024/01/15 10:13:07;;;;;;;6.22;3.08;;;;;;;;;;5005207;28;20034;-57
2024/01/15 10:15:36;;;;;;;6.43;2.60;;;;;;;;;;5006054;28;20053;-57
2024/01/15 10:18:03;;;;;;;4.80;2.30;;;;;;;;;;4999687;28;20037;-57
2024/01/15 10:20:32;;;;;;;4.45;2.55;;;;;;;;;;5001463;28;20042;-57
2024/01/15 10:22:58;;;;;;;3.88;2.58;;;;;;;;;;4996981;28;20030;-58
2024/01/15 10:25:25;;;;;;;2.53;1.80;;;;;;;;;;4997518;28;20054;-57
2024/01/15 10:28:02;;;;;;;4.43;2.20;;;;;;;;;;5000333;28;20046;-58
2024/01/15 10:30:29;;;;;;;3.75;1.95;;;;;;;;;;5001087;28;20046;-58
2024/01/15 10:33:02;;;;;;;3.25;2.00;;;;;;;;;;4995238;28;20049;-59
2024/01/15 10:35:28;;;;;;;3.30;2.55;;;;;;;;;;4992489;28;20038;-58
2024/01/15 10:37:54;;;;;;;3.72;2.35;;;;;;;;;;4996411;28;20516;-57
2024/01/15 10:40:20;;;;;;;3.35;2.13;;;;;;;;;;4993813;28;20046;-57
2024/01/15 10:42:47;;;;;;;3.20;2.10;;;;;;;;;;4999055;28;20041;-57
2024/01/15 10:45:14;;;;;;;4.43;2.33;;;;;;;;;;4992348;28;20038;-58
2024/01/15 10:47:43;;;;;;;4.15;2.65;;;;;;;;;;5000187;28;20531;-56
2024/01/15 10:50:10;;;;;;;3.92;2.30;;;;;;;;;;4994532;28;20034;-57
2024/01/15 10:52:37;;;;;;;4.90;2.90;;;;;;;;;;5001285;28;20046;-57
2024/01/15 10:55:05;;;;;;;5.03;2.22;;;;;;;;;;4996549;28;20054;-56
2024/01/15 10:57:31;;;;;;;4.15;2.22;;;;;;;;;;4994085;28;20049;-58
2024/01/15 10:59:58;;;;;;;5.32;2.45;;;;;;;;;;4999596;28;20049;-56
2024/01/15 11:02:26;;;;;;;5.35;2.70;;;;;;;;;;5001761;28;20057;-58
2024/01/15 11:04:52;;;;;;;4.50;2.35;;;;;;;;;;4999948;28;20046;-58
2024/01/15 11:07:23;;;;;;;7.40;3.30;;;;;;;;;;5001600;28;20030;-57
2024/01/15 11:09:50;;;;;;;5.95;3.13;;;;;;;;;;5007971;28;20054;-58
2024/01/15 11:12:17;;;;;;;6.35;3.58;;;;;;;;;;5003254;28;20050;-57
2024/01/15 11:14:48;;;;;;;8.00;3.00;;;;;;;;;;5007446;28;20042;-57
2024/01/15 11:17:15;;;;;;;6.68;2.33;;;;;;;;;;5010089;28;20053;-57
2024/01/15 11:19:41;;;;;;;4.60;2.83;;;;;;;;;;5004618;28;20029;-57
2024/01/15 11:22:30;;;;;;;4.57;2.72;;;;;;;;;;5007479;28;20037;-57
2024/01/15 11:25:01;;;;;;;4.57;2.33;;;;;;;;;;5003562;28;20513;-56
2024/01/15 11:27:42;;;;;;;6.25;2.72;;;;;;;;;;5004824;28;20426;-56
2024/01/15 11:30:13;;;;;;;4.32;2.50;;;;;;;;;;5020081;28;20037;-57
2024/01/15 11:32:42;;;;;;;4.80;2.55;;;;;;;;;;5002464;28;20050;-56
2024/01/15 11:35:10;;;;;;;4.07;2.83;;;;;;;;;;5000625;28;20409;-57
2024/01/15 11:37:48;;;;;;;4.22;2.33;;;;;;;;;;4998914;28;20038;-56
2024/01/15 11:40:18;;;;;;;5.50;2.40;;;;;;;;;;5001827;28;20076;-56
2024/01/15 11:42:47;;;;;;;4.25;2.42;;;;;;;;;;4996287;28;20039;-58
2024/01/15 11:45:19;;;;;;;3.75;2.58;;;;;;;;;;5001651;28;20046;-58
2024/01/15 11:47:48;;;;;;;7.78;3.20;;;;;;;;;;5000391;28;20048;-58
2024/01/15 11:50:14;;;;;;;5.68;2.63;;;;;;;;;;4997555;28;20040;-58
2024/01/15 11:52:44;;;;;;;4.90;2.25;;;;;;;;;;5005440;28;20665;-56
2024/01/15 11:55:30;;;;;;;4.53;2.67;;;;;;;;;;4999858;28;20050;-57
2024/01/15 11:57:57;;;;;;;4.25;2.22;;;;;;;;;;5000163;28;20050;-58
2024/01/15 12:00:24;;;;;;;6.95;2.50;;;;;;;;;;4995234;28;20049;-59
2024/01/15 12:02:53;;;;;;;5.05;2.70;;;;;;;;;;5002889;28;20056;-57
2024/01/15 12:05:20;;;;;;;4.70;2.80;;;;;;;;;;4998568;28;20034;-57
2024/01/15 12:07:48;;;;;;;6.55;2.55;;;;;;;;;;4999657;28;20072;-57
2024/01/15 12:10:18;;;;;;;4.20;2.70;;;;;;;;;;4994726;28;20383;-57
2024/01/15 12:12:59;;;;;;;5.15;2.70;;;;;;;;;;4990842;28;20049;-56
2024/01/15 12:15:28;;;;;;;6.55;3.42;;;;;;;;;;4995684;28;20038;-57
2024/01/15 12:17:57;;;;;;;6.50;3.05;;;;;;;;;;4998878;28;20042;-58
2024/01/15 12:20:25;;;;;;;9.48;3.38;;;;;;;;;;5002587;28;20371;-59
2024/01/15 12:22:51;;;;;;;5.53;3.05;;;;;;;;;;4996463;28;20052;-59
2024/01/15 12:25:17;;;;;;;8.70;3.20;;;;;;;;;;5000244;28;20044;-58
2024/01/15 12:27:44;;;;;;;7.20;3.47;;;;;;;;;;4998695;28;20044;-59
2024/01/15 12:30:13;;;;;;;6.10;3.50;;;;;;;;;;5001790;28;20053;-59
2024/01/15 12:32:43;;;;;;;7.22;3.88;;;;;;;;;;4996707;28;20030;-58
2024/01/15 12:35:10;;;;;;;7.10;3.17;;;;;;;;;;5002604;28;20042;-57
2024/01/15 12:37:40;;;;;;;6.82;3.83;;;;;;;;;;4999051;28;20417;-57
2024/01/15 12:40:11;;;;;;;5.78;3.22;;;;;;;;;;4998219;28;20502;-58
2024/01/15 12:42:41;;;;;;;5.00;3.03;;;;;;;;;;4999929;28;20042;-57
2024/01/15 12:45:09;;;;;;;9.13;3.45;;;;;;;;;;4998747;28;20413;-58
2024/01/15 12:47:36;;;;;;;7.75;3.42;;;;;;;;;;5003746;28;20049;-58
2024/01/15 12:50:06;;;;;;;8.77;4.25;;;;;;;;;;5000016;28;20042;-58
2024/01/15 12:52:32;;;;;;;6.32;3.72;;;;;;;;;;4999511;28;20049;-58
2024/01/15 12:54:58;;;;;;;6.60;3.38;;;;;;;;;;5001164;28;20045;-58
2024/01/15 12:57:25;;;;;;;7.25;3.67;;;;;;;;;;5001124;28;20033;-58
2024/01/15 12:59:51;;;;;;;7.35;3.92;;;;;;;;;;4998875;28;20046;-58
2024/01/15 13:02:17;;;;;;;9.95;4.30;;;;;;;;;;5002314;28;20038;-58
2024/01/15 13:04:43;;;;;;;8.20;3.85;;;;;;;;;;4994184;28;20407;-56
2024/01/15 13:07:09;;;;;;;6.47;3.92;;;;;;;;;;4995537;28;20084;-59
2024/01/15 13:09:36;;;;;;;6.35;3.90;;;;;;;;;;5001541;28;20049;-56
2024/01/15 13:12:05;;;;;;;6.60;3.90;;;;;;;;;;5000303;28;20045;-56
2024/01/15 13:14:31;;;;;;;8.07;4.10;;;;;;;;;;5004160;28;20048;-58
2024/01/15 13:16:59;;;;;;;7.43;4.03;;;;;;;;;;5001528;28;20037;-58
2024/01/15 13:19:25;;;;;;;8.20;4.85;;;;;;;;;;5003374;28;20045;-57
2024/01/15 13:21:53;;;;;;;10.65;4.70;;;;;;;;;;5006860;28;20417;-57
2024/01/15 13:24:20;;;;;;;8.07;4.93;;;;;;;;;;4998286;28;20046;-58
2024/01/15 13:26:46;;;;;;;10.68;4.65;;;;;;;;;;4999956;28;20042;-57
2024/01/15 13:29:13;;;;;;;8.48;4.65;;;;;;;;;;5005327;28;20038;-58
2024/01/15 13:31:39;;;;;;;11.63;5.25;;;;;;;;;;4995985;28;20050;-59
2024/01/15 13:34:07;;;;;;;11.15;5.68;;;;;;;;;;5002664;28;20425;-58
2024/01/15 13:36:33;;;;;;;7.72;3.95;;;;;;;;;;4995781;28;20038;-58
2024/01/15 13:38:59;;;;;;;10.57;5.18;;;;;;;;;;4995494;28;20045;-59
2024/01/15 13:41:27;;;;;;;9.52;4.90;;;;;;;;;;4998482;28;20053;-58
2024/01/15 13:43:55;;;;;;;12.00;5.50;;;;;;;;;;4998293;28;20050;-58
2024/01/15 13:46:24;;;;;;;11.73;5.20;;;;;;;;;;4996305;28;20402;-57
2024/01/15 13:48:50;;;;;;;11.20;4.68;;;;;;;;;;5000391;28;20070;-57
2024/01/15 13:51:16;;;;;;;13.25;5.57;;;;;;;;;;4996014;28;20050;-58
2024/01/15 13:53:42;;;;;;;10.60;5.25;;;;;;;;;;5002312;28;20038;-57
2024/01/15 13:56:10;;;;;;;11.55;4.82;;;;;;;;;;5001302;28;20049;-57
2024/01/15 13:58:37;;;;;;;11.27;5.18;;;;;;;;;;4999299;28;20042;-57
2024/01/15 14:01:06;;;;;;;13.40;5.93;;;;;;;;;;4996210;28;20042;-58
2024/01/15 14:03:33;;;;;;;15.80;5.88;;;;;;;;;;5002095;28;20045;-58
2024/01/15 14:06:02;;;;;;;12.65;5.68;;;;;;;;;;5002575;28;20417;-58
2024/01/15 14:08:28;;;;;;;15.15;7.10;;;;;;;;;;5001541;28;20053;-58
2024/01/15 14:10:56;;;;;;;11.40;5.43;;;;;;;;;;5003935;28;20054;-58
2024/01/15 14:13:23;;;;;;;11.95;5.53;;;;;;;;;;5002750;28;20402;-58
2024/01/15 14:15:49;;;;;;;10.95;5.50;;;;;;;;;;4998591;28;20038;-59
2024/01/15 14:18:18;;;;;;;12.98;6.40;;;;;;;;;;4998139;28;20057;-58
2024/01/15 14:20:44;;;;;;;12.02;5.65;;;;;;;;;;5002084;28;20041;-59
2024/01/15 14:23:13;;;;;;;13.02;6.22;;;;;;;;;;4998589;28;20434;-58
2024/01/15 14:25:39;;;;;;;31.85;11.95;;;;;;;;;;4998748;28;20050;-58
2024/01/15 14:28:06;;;;;;;18.38;8.52;;;;;;;;;;5002033;28;20038;-59
2024/01/15 14:30:32;;;;;;;13.23;6.43;;;;;;;;;;4996800;28;20046;-59